Time;durP1;ratioP1;P1;durP2;ratioP2;P2;SDS_P1;SDS_P2;PMS_P1;PMS_P2;Temp;Humidity;BMP_temperature;BMP_pressure;BME280_temperature;BME280_humidity;BME280_pressure;Samples;Min_cycle;Max_cycle;Signal;HPM_P1;HPM_P2
2024/03/24 00:01:40;;;;;;;0.90;0.90;;;3.60;99.90;;;;;;5003332;28;20444;-41
2024/03/24 00:04:06;;;;;;;0.90;0.90;;;3.60;99.90;;;;;;5003957;28;20034;-41
2024/03/24 00:06:31;;;;;;;1.00;1.00;;;3.60;99.90;;;;;;5033356;28;20065;-40
2024/03/24 00:08:57;;;;;;;2.88;1.27;;;3.60;99.90;;;;;;5003742;28;20067;-35
2024/03/24 00:11:23;;;;;;;1.80;1.00;;;3.70;99.90;;;;;;5006386;28;20134;-35
2024/03/24 00:13:48;;;;;;;1.85;1.10;;;3.70;99.90;;;;;;4998338;28;20021;-35
2024/03/24 00:16:14;;;;;;;1.02;0.65;;;3.70;99.90;;;;;;5004230;28;20380;-34
2024/03/24 00:18:39;;;;;;;1.20;1.10;;;3.70;99.90;;;;;;5001579;28;20076;-34
2024/03/24 00:21:05;;;;;;;3.55;1.10;;;3.70;99.90;;;;;;5002019;28;20022;-32
2024/03/24 00:23:30;;;;;;;2.13;0.85;;;3.60;99.90;;;;;;5005765;28;20671;-35
2024/03/24 00:25:56;;;;;;;0.88;0.85;;;3.60;99.90;;;;;;5004415;28;20038;-34
2024/03/24 00:28:22;;;;;;;0.80;0.73;;;3.60;99.90;;;;;;5000653;28;20504;-33
2024/03/24 00:30:47;;;;;;;0.60;0.60;;;3.70;99.90;;;;;;4997128;28;20034;-34
2024/03/24 00:33:13;;;;;;;0.70;0.70;;;3.60;99.90;;;;;;4983404;28;20447;-35
2024/03/24 00:35:38;;;;;;;0.80;0.80;;;3.60;99.90;;;;;;4978791;28;20077;-33
2024/03/24 00:38:04;;;;;;;0.70;0.70;;;3.60;99.90;;;;;;4982445;28;20178;-33
2024/03/24 00:40:30;;;;;;;0.82;0.80;;;3.60;99.90;;;;;;4980030;28;20486;-32
2024/03/24 00:42:56;;;;;;;0.88;0.88;;;3.60;99.90;;;;;;4983537;28;20826;-35
2024/03/24 00:45:21;;;;;;;1.00;1.00;;;3.60;99.90;;;;;;4983997;28;20030;-33
2024/03/24 00:47:47;;;;;;;0.70;0.70;;;3.60;99.90;;;;;;4984891;28;20633;-32
2024/03/24 00:50:14;;;;;;;0.95;0.95;;;3.50;99.90;;;;;;4984787;28;20050;-34
2024/03/24 00:52:39;;;;;;;1.10;1.00;;;3.60;99.90;;;;;;4977102;28;20035;-35
2024/03/24 00:55:05;;;;;;;2.88;1.20;;;3.60;99.90;;;;;;4982587;28;20151;-35
2024/03/24 00:57:31;;;;;;;1.48;1.10;;;3.60;99.90;;;;;;4979151;28;20064;-34
2024/03/24 00:59:56;;;;;;;0.90;0.90;;;3.60;99.90;;;;;;4983429;28;20038;-36
2024/03/24 01:02:22;;;;;;;0.70;0.70;;;3.60;99.90;;;;;;5002937;28;20022;-35
2024/03/24 01:04:48;;;;;;;0.88;0.88;;;3.40;99.90;;;;;;5003942;28;20388;-36
2024/03/24 01:07:13;;;;;;;1.45;1.10;;;3.50;99.90;;;;;;5007430;28;20036;-34
2024/03/24 01:09:39;;;;;;;1.40;1.13;;;3.50;99.90;;;;;;5002178;28;20217;-35
2024/03/24 01:12:05;;;;;;;0.93;0.93;;;3.60;99.90;;;;;;5006606;28;20077;-34
2024/03/24 01:14:31;;;;;;;1.25;1.25;;;3.60;99.90;;;;;;5007489;28;20034;-37
2024/03/24 01:16:57;;;;;;;1.08;1.08;;;3.60;99.90;;;;;;5009962;28;20030;-39
2024/03/24 01:19:23;;;;;;;0.98;0.98;;;3.70;99.90;;;;;;5005262;28;20528;-39
2024/03/24 01:21:48;;;;;;;1.10;1.10;;;3.70;99.90;;;;;;5003269;28;20022;-41
2024/03/24 01:24:14;;;;;;;1.52;1.25;;;3.70;99.90;;;;;;5038865;28;20595;-39
2024/03/24 01:26:39;;;;;;;2.13;1.10;;;3.70;99.90;;;;;;5008980;28;20034;-39
2024/03/24 01:29:06;;;;;;;2.17;1.08;;;3.70;99.90;;;;;;5005769;28;20105;-40
2024/03/24 01:31:32;;;;;;;1.15;1.15;;;3.80;99.90;;;;;;4996144;28;20111;-41
2024/03/24 01:33:58;;;;;;;0.90;0.90;;;3.80;99.90;;;;;;4982609;28;20561;-39
2024/03/24 01:36:23;;;;;;;0.80;0.80;;;3.80;99.90;;;;;;4984669;28;20042;-37
2024/03/24 01:38:49;;;;;;;1.00;0.90;;;3.80;99.90;;;;;;4987374;28;20766;-41
2024/03/24 01:41:14;;;;;;;0.93;0.93;;;3.80;99.90;;;;;;4983393;28;20038;-41
2024/03/24 01:43:40;;;;;;;1.20;0.98;;;3.80;99.90;;;;;;4984535;28;20173;-40
2024/03/24 01:46:06;;;;;;;1.05;1.00;;;3.70;99.90;;;;;;5011913;28;20452;-41
2024/03/24 01:48:31;;;;;;;0.93;0.88;;;3.70;99.90;;;;;;4985649;28;20026;-37
2024/03/24 01:50:57;;;;;;;0.80;0.80;;;3.60;99.90;;;;;;4983030;28;20091;-35
2024/03/24 01:53:24;;;;;;;0.73;0.73;;;3.50;99.90;;;;;;4984825;28;20030;-40
2024/03/24 01:55:49;;;;;;;0.80;0.80;;;3.40;99.90;;;;;;4984339;28;20491;-39
2024/03/24 01:58:15;;;;;;;1.65;1.55;;;3.50;99.90;;;;;;4986720;28;20030;-40
2024/03/24 02:00:41;;;;;;;0.95;0.95;;;3.40;99.90;;;;;;4989886;28;20026;-41
2024/03/24 02:03:06;;;;;;;1.58;0.88;;;3.40;99.90;;;;;;5004295;28;20065;-39
2024/03/24 02:05:32;;;;;;;0.77;0.77;;;3.40;99.90;;;;;;5006816;28;20018;-39
2024/03/24 02:07:57;;;;;;;0.80;0.80;;;3.50;99.90;;;;;;5005946;28;20049;-38
2024/03/24 02:10:23;;;;;;;1.02;0.95;;;3.50;99.90;;;;;;5005196;28;20498;-38
2024/03/24 02:12:49;;;;;;;0.90;0.90;;;3.50;99.90;;;;;;5006251;28;20450;-41
2024/03/24 02:15:15;;;;;;;0.60;0.60;;;3.40;99.90;;;;;;4999823;28;20061;-38
2024/03/24 02:17:43;;;;;;;1.70;1.60;;;3.40;99.90;;;;;;5004276;28;20030;-40
2024/03/24 02:20:12;;;;;;;0.98;0.98;;;3.40;99.90;;;;;;5004555;28;20539;-40
2024/03/24 02:22:39;;;;;;;2.70;1.10;;;3.50;99.90;;;;;;5004722;28;20057;-40
2024/03/24 02:25:05;;;;;;;0.60;0.60;;;3.50;99.90;;;;;;5005843;28;20065;-40
2024/03/24 02:27:34;;;;;;;1.02;1.00;;;3.40;99.90;;;;;;5004113;28;20034;-32
2024/03/24 02:29:59;;;;;;;;;;;3.50;99.90;;;;;;5005682;28;20064;-32
2024/03/24 02:32:28;;;;;;;0.90;0.90;;;3.50;99.90;;;;;;5004323;28;19948;-37
2024/03/24 02:34:53;;;;;;;1.08;1.08;;;3.50;99.90;;;;;;5005957;28;20026;-32
2024/03/24 02:37:19;;;;;;;1.35;1.15;;;3.50;99.90;;;;;;5006926;28;20040;-32
2024/03/24 02:39:45;;;;;;;1.30;1.20;;;3.60;99.90;;;;;;5005693;28;20384;-35
2024/03/24 02:42:11;;;;;;;1.55;1.23;;;3.60;99.90;;;;;;5004911;28;20025;-32
2024/03/24 02:44:37;;;;;;;0.85;0.85;;;3.60;99.90;;;;;;5005648;28;20109;-33
2024/03/24 02:47:03;;;;;;;0.80;0.80;;;3.60;99.90;;;;;;5005359;28;20080;-37
2024/03/24 02:49:29;;;;;;;0.93;0.93;;;3.60;99.90;;;;;;5002248;28;20049;-34
2024/03/24 02:51:54;;;;;;;1.10;1.10;;;3.60;99.90;;;;;;5004312;28;20388;-33
2024/03/24 02:54:20;;;;;;;2.53;1.02;;;3.60;99.90;;;;;;5005508;28;20025;-32
2024/03/24 02:56:45;;;;;;;0.80;0.80;;;3.60;99.90;;;;;;5006513;28;20026;-34
2024/03/24 02:59:11;;;;;;;0.82;0.82;;;3.70;99.90;;;;;;5004344;28;20014;-36
2024/03/24 03:01:37;;;;;;;0.68;0.68;;;3.60;99.90;;;;;;4993349;28;20403;-32
2024/03/24 03:04:03;;;;;;;0.93;0.88;;;3.60;99.90;;;;;;4984182;28;20125;-32
2024/03/24 03:06:29;;;;;;;4.28;1.17;;;3.70;99.90;;;;;;4985124;28;20026;-35
2024/03/24 03:08:55;;;;;;;2.30;1.02;;;3.70;99.90;;;;;;4985351;28;20450;-35
2024/03/24 03:11:20;;;;;;;1.55;1.23;;;3.60;99.90;;;;;;4985305;28;20022;-32
2024/03/24 03:13:46;;;;;;;0.70;0.70;;;3.60;99.90;;;;;;4987195;28;20069;-37
2024/03/24 03:16:11;;;;;;;0.60;0.60;;;3.60;99.90;;;;;;4985149;28;20052;-33
2024/03/24 03:18:37;;;;;;;0.88;0.88;;;3.50;99.90;;;;;;4983037;28;20038;-42
2024/03/24 03:21:03;;;;;;;1.10;1.10;;;3.40;99.90;;;;;;5014846;28;20062;-42
2024/03/24 03:23:28;;;;;;;1.17;1.08;;;3.40;99.90;;;;;;4984281;28;20102;-41
2024/03/24 03:25:54;;;;;;;4.90;1.27;;;3.40;99.90;;;;;;4982766;28;20026;-41
2024/03/24 03:28:19;;;;;;;0.95;0.95;;;3.30;99.90;;;;;;4982919;28;20121;-40
2024/03/24 03:30:45;;;;;;;1.50;1.40;;;3.30;99.90;;;;;;4984597;28;20419;-39
2024/03/24 03:33:10;;;;;;;2.03;1.10;;;3.30;99.90;;;;;;4979494;28;20113;-42
2024/03/24 03:35:36;;;;;;;1.02;1.02;;;3.40;99.90;;;;;;4986640;28;20069;-39
2024/03/24 03:38:02;;;;;;;0.93;0.93;;;3.40;99.90;;;;;;4982824;28;20050;-35
2024/03/24 03:40:27;;;;;;;1.27;1.25;;;3.40;99.90;;;;;;4985797;28;20558;-33
2024/03/24 03:42:53;;;;;;;2.35;1.05;;;3.50;99.90;;;;;;4980269;28;20023;-34
2024/03/24 03:45:18;;;;;;;0.90;0.90;;;3.50;99.90;;;;;;4986322;28;20053;-34
2024/03/24 03:47:44;;;;;;;0.80;0.80;;;3.50;99.90;;;;;;4979822;28;20058;-34
2024/03/24 03:50:17;;;;;;;0.82;0.82;;;3.50;99.90;;;;;;4982449;28;20042;-33
2024/03/24 03:52:47;;;;;;;1.20;1.20;;;3.50;99.90;;;;;;4978323;28;20093;-32
2024/03/24 03:55:16;;;;;;;1.20;1.10;;;3.50;99.90;;;;;;4986142;28;20038;-33
2024/03/24 03:57:43;;;;;;;1.17;1.10;;;3.50;99.90;;;;;;5011220;28;20030;-35
2024/03/24 04:00:11;;;;;;;2.72;1.30;;;3.40;99.90;;;;;;4981191;28;20037;-32
2024/03/24 04:02:41;;;;;;;2.67;1.23;;;3.40;99.90;;;;;;4978005;28;20035;-32
2024/03/24 04:05:09;;;;;;;1.02;1.02;;;3.30;99.90;;;;;;4982253;28;20042;-35
2024/03/24 04:07:35;;;;;;;0.98;0.98;;;3.40;99.90;;;;;;4983405;28;20078;-33
2024/03/24 04:10:02;;;;;;;1.73;1.15;;;3.30;99.90;;;;;;4982280;28;20042;-37
2024/03/24 04:12:28;;;;;;;1.38;1.10;;;3.30;99.90;;;;;;4980740;28;20037;-35
2024/03/24 04:14:54;;;;;;;0.90;0.90;;;3.30;99.90;;;;;;4981927;28;20038;-33
2024/03/24 04:17:20;;;;;;;1.42;1.00;;;3.30;99.90;;;;;;4981080;28;20042;-33
2024/03/24 04:19:46;;;;;;;0.90;0.88;;;3.30;99.90;;;;;;4981327;28;20037;-35
2024/03/24 04:22:12;;;;;;;1.13;1.02;;;3.30;99.90;;;;;;4981363;28;20377;-38
2024/03/24 04:24:37;;;;;;;0.70;0.70;;;3.30;99.90;;;;;;4983204;28;20379;-34
2024/03/24 04:27:03;;;;;;;0.65;0.65;;;3.30;99.90;;;;;;4981597;28;20042;-33
2024/03/24 04:29:29;;;;;;;0.80;0.80;;;3.30;99.90;;;;;;4984904;28;20113;-40
2024/03/24 04:31:54;;;;;;;0.73;0.73;;;3.30;99.90;;;;;;4981469;28;20042;-45
2024/03/24 04:34:20;;;;;;;0.90;0.90;;;3.20;99.90;;;;;;4984700;28;20504;-40
2024/03/24 04:36:45;;;;;;;0.63;0.63;;;3.30;99.90;;;;;;4978892;28;20026;-39
2024/03/24 04:39:12;;;;;;;0.80;0.80;;;3.30;99.90;;;;;;4983535;28;20023;-37
2024/03/24 04:41:40;;;;;;;0.63;0.63;;;3.30;99.90;;;;;;4981115;28;20034;-40
2024/03/24 04:44:06;;;;;;;0.82;0.82;;;3.30;99.90;;;;;;4978303;28;20068;-41
2024/03/24 04:46:32;;;;;;;0.70;0.70;;;3.30;99.90;;;;;;4982883;28;20387;-41
2024/03/24 04:48:58;;;;;;;0.82;0.82;;;3.30;99.90;;;;;;4984957;28;20026;-41
2024/03/24 04:51:23;;;;;;;0.68;0.68;;;3.20;99.90;;;;;;4977032;28;20031;-34
2024/03/24 04:53:49;;;;;;;0.50;0.50;;;3.20;99.90;;;;;;4985757;28;20092;-41
2024/03/24 04:56:15;;;;;;;0.95;0.95;;;3.10;99.90;;;;;;4977650;28;20031;-40
2024/03/24 04:58:41;;;;;;;1.05;0.85;;;3.10;99.90;;;;;;4983705;28;20030;-41
2024/03/24 05:01:06;;;;;;;0.80;0.80;;;3.00;99.90;;;;;;4990071;28;20034;-40
2024/03/24 05:03:32;;;;;;;0.73;0.73;;;3.10;99.90;;;;;;4999206;28;20021;-41
2024/03/24 05:05:57;;;;;;;0.90;0.90;;;3.10;99.90;;;;;;4999618;28;23001;-37
2024/03/24 05:08:23;;;;;;;0.65;0.65;;;3.10;99.90;;;;;;5005122;28;20523;-38
2024/03/24 05:10:49;;;;;;;0.77;0.77;;;3.10;99.90;;;;;;5003557;28;20474;-43
2024/03/24 05:13:15;;;;;;;0.60;0.60;;;3.10;99.90;;;;;;5006448;28;20189;-40
2024/03/24 05:15:41;;;;;;;0.70;0.70;;;3.00;99.90;;;;;;5004195;28;20022;-42
2024/03/24 05:18:08;;;;;;;1.85;1.05;;;3.00;99.90;;;;;;5003915;28;20030;-41
2024/03/24 05:20:36;;;;;;;0.50;0.50;;;3.00;99.90;;;;;;5002046;28;20030;-41
2024/03/24 05:23:05;;;;;;;0.55;0.55;;;3.00;99.90;;;;;;5006078;28;20097;-42
2024/03/24 05:25:31;;;;;;;;;;;2.90;99.90;;;;;;5002883;28;20419;-41
2024/03/24 05:27:57;;;;;;;0.63;0.63;;;2.90;99.90;;;;;;5001271;28;19976;-39
2024/03/24 05:30:23;;;;;;;1.00;0.90;;;2.90;99.90;;;;;;5001155;28;20088;-39
2024/03/24 05:32:49;;;;;;;0.90;0.90;;;2.90;99.90;;;;;;4984018;28;20047;-41
2024/03/24 05:35:15;;;;;;;0.80;0.80;;;2.90;99.90;;;;;;4983098;28;20036;-41
2024/03/24 05:37:40;;;;;;;0.80;0.60;;;2.90;99.90;;;;;;4983759;28;20058;-41
2024/03/24 05:40:07;;;;;;;0.60;0.60;;;3.00;99.90;;;;;;4979593;28;20030;-41
2024/03/24 05:42:32;;;;;;;0.68;0.68;;;3.00;99.90;;;;;;4982198;28;20455;-39
2024/03/24 05:44:58;;;;;;;1.55;1.45;;;3.00;99.90;;;;;;4986214;28;20034;-40
2024/03/24 05:47:23;;;;;;;0.95;0.95;;;3.00;99.90;;;;;;5019259;28;20061;-38
2024/03/24 05:49:49;;;;;;;1.17;0.60;;;3.00;99.90;;;;;;4985471;28;20081;-33
2024/03/24 05:52:15;;;;;;;0.90;0.90;;;3.00;99.90;;;;;;4987210;28;20041;-33
2024/03/24 05:54:40;;;;;;;0.60;0.60;;;3.00;99.90;;;;;;4986190;28;20029;-37
2024/03/24 05:57:06;;;;;;;1.10;1.10;;;3.00;99.90;;;;;;4986751;28;21916;-36
2024/03/24 05:59:31;;;;;;;1.40;1.30;;;3.10;99.90;;;;;;4984677;28;20607;-33
2024/03/24 06:01:57;;;;;;;0.70;0.70;;;3.10;99.90;;;;;;4999884;28;20053;-37
2024/03/24 06:04:23;;;;;;;0.90;0.90;;;3.10;99.90;;;;;;5006370;28;20049;-33
2024/03/24 06:06:48;;;;;;;1.50;1.40;;;3.20;99.90;;;;;;5005777;28;20109;-34
2024/03/24 06:09:14;;;;;;;1.05;1.05;;;3.30;99.90;;;;;;5001621;28;20044;-32
2024/03/24 06:11:39;;;;;;;0.85;0.85;;;3.20;99.90;;;;;;5005287;28;20068;-33
2024/03/24 06:14:05;;;;;;;0.77;0.77;;;3.30;99.90;;;;;;5004108;28;20026;-33
2024/03/24 06:16:30;;;;;;;1.35;1.27;;;3.30;99.90;;;;;;5003803;28;20096;-35
2024/03/24 06:18:56;;;;;;;0.82;0.82;;;3.30;99.90;;;;;;5005747;28;20038;-42
2024/03/24 06:21:21;;;;;;;1.10;1.02;;;3.30;99.90;;;;;;5004928;28;20396;-43
2024/03/24 06:23:51;;;;;;;1.33;1.02;;;3.30;99.90;;;;;;5005718;28;20481;-40
2024/03/24 06:26:17;;;;;;;2.15;1.00;;;3.40;99.90;;;;;;5002117;28;20030;-41
2024/03/24 06:28:43;;;;;;;0.80;0.80;;;3.50;99.90;;;;;;5007752;28;20612;-33
2024/03/24 06:31:08;;;;;;;0.80;0.80;;;3.70;99.90;;;;;;4997293;28;20038;-32
2024/03/24 06:33:34;;;;;;;0.82;0.60;;;3.70;99.90;;;;;;4986936;28;20034;-32
2024/03/24 06:35:59;;;;;;;0.80;0.80;;;3.70;99.90;;;;;;4981578;28;20042;-36
2024/03/24 06:38:27;;;;;;;0.82;0.82;;;3.80;99.90;;;;;;4984294;28;20077;-35
2024/03/24 06:40:53;;;;;;;0.70;0.70;;;3.80;99.90;;;;;;4984612;28;20057;-33
2024/03/24 06:43:23;;;;;;;0.73;0.73;;;3.80;99.90;;;;;;4985000;28;20039;-33
2024/03/24 06:45:49;;;;;;;1.83;0.80;;;3.80;99.90;;;;;;4986664;28;20097;-34
2024/03/24 06:48:15;;;;;;;0.82;0.82;;;3.90;99.90;;;;;;4984390;28;20369;-35
2024/03/24 06:50:40;;;;;;;0.70;0.70;;;3.90;99.90;;;;;;4983268;28;20034;-34
2024/03/24 06:53:06;;;;;;;0.60;0.60;;;3.90;99.90;;;;;;4986517;28;20063;-35
2024/03/24 06:55:32;;;;;;;0.68;0.68;;;4.00;99.90;;;;;;4981564;28;20034;-35
2024/03/24 06:57:58;;;;;;;0.80;0.80;;;3.90;99.90;;;;;;4977997;28;20037;-37
2024/03/24 07:00:23;;;;;;;5.57;0.98;;;4.00;99.90;;;;;;4986746;28;20053;-35
2024/03/24 07:02:49;;;;;;;0.82;0.82;;;4.00;99.90;;;;;;4999759;28;20037;-33
2024/03/24 07:05:15;;;;;;;1.25;0.80;;;4.00;99.90;;;;;;5002571;28;20049;-35
2024/03/24 07:07:41;;;;;;;1.00;1.00;;;4.00;99.90;;;;;;5005515;28;20034;-38
2024/03/24 07:10:07;;;;;;;0.73;0.73;;;4.10;99.90;;;;;;5005346;28;20026;-39
2024/03/24 07:12:34;;;;;;;0.65;0.65;;;4.10;99.90;;;;;;5004233;28;20034;-41
2024/03/24 07:15:00;;;;;;;0.70;0.70;;;4.10;99.90;;;;;;5003327;28;20041;-41
2024/03/24 07:17:26;;;;;;;0.70;0.70;;;4.10;99.90;;;;;;4999370;28;20072;-41
2024/03/24 07:19:51;;;;;;;0.85;0.85;;;4.10;99.90;;;;;;5037327;28;20487;-39
2024/03/24 07:22:17;;;;;;;0.85;0.85;;;4.10;99.90;;;;;;5000763;28;20026;-40
2024/03/24 07:24:43;;;;;;;0.50;0.50;;;4.10;99.90;;;;;;5005738;28;20033;-38
2024/03/24 07:27:08;;;;;;;0.68;0.68;;;4.20;99.90;;;;;;5007976;28;20053;-41
2024/03/24 07:29:34;;;;;;;0.60;0.60;;;4.20;99.90;;;;;;5004602;28;20030;-40
2024/03/24 07:31:59;;;;;;;0.90;0.90;;;4.30;99.90;;;;;;5003226;28;20373;-41
2024/03/24 07:34:25;;;;;;;0.80;0.80;;;4.20;99.90;;;;;;5001975;28;20068;-40
2024/03/24 07:36:51;;;;;;;0.80;0.80;;;4.20;99.90;;;;;;5004475;28;20033;-39
2024/03/24 07:39:16;;;;;;;0.88;0.88;;;4.30;99.90;;;;;;5002373;28;20026;-40
2024/03/24 07:41:42;;;;;;;1.15;0.80;;;4.30;99.90;;;;;;5004183;28;20133;-39
2024/03/24 07:44:07;;;;;;;0.70;0.70;;;4.30;99.90;;;;;;5002733;28;20112;-39
2024/03/24 07:46:33;;;;;;;0.95;0.50;;;4.40;99.90;;;;;;5004498;28;20044;-39
2024/03/24 07:48:58;;;;;;;0.73;0.73;;;4.40;99.90;;;;;;5004505;28;20582;-37
2024/03/24 07:51:26;;;;;;;0.82;0.80;;;4.40;99.90;;;;;;5004687;28;20045;-37
2024/03/24 07:53:52;;;;;;;0.50;0.50;;;4.40;99.90;;;;;;5007269;28;20113;-40
2024/03/24 07:56:18;;;;;;;0.70;0.70;;;4.50;99.90;;;;;;5000481;28;20113;-40
2024/03/24 07:58:43;;;;;;;0.70;0.70;;;4.60;99.90;;;;;;5003803;28;20044;-39
2024/03/24 08:01:09;;;;;;;0.50;0.50;;;4.60;99.90;;;;;;4994629;28;20030;-41
2024/03/24 08:03:34;;;;;;;1.23;0.90;;;4.60;99.90;;;;;;4983662;28;20480;-40
2024/03/24 08:06:00;;;;;;;0.85;0.85;;;4.50;99.90;;;;;;4978055;28;20061;-40
2024/03/24 08:08:26;;;;;;;0.63;0.63;;;4.50;99.90;;;;;;4984435;28;20571;-41
2024/03/24 08:10:51;;;;;;;0.73;0.73;;;4.40;99.90;;;;;;4984672;28;20396;-41
2024/03/24 08:13:17;;;;;;;0.60;0.60;;;4.40;99.90;;;;;;4984770;28;20030;-37
2024/03/24 08:15:43;;;;;;;0.80;0.80;;;4.40;99.90;;;;;;4983455;28;20030;-41
2024/03/24 08:18:10;;;;;;;0.95;0.95;;;4.40;99.90;;;;;;4979336;28;20034;-33
2024/03/24 08:20:35;;;;;;;0.80;0.80;;;4.30;99.90;;;;;;4982761;28;20038;-37
2024/03/24 08:23:01;;;;;;;1.05;1.05;;;4.40;99.90;;;;;;4984668;28;20672;-34
2024/03/24 08:25:26;;;;;;;0.73;0.73;;;4.40;99.90;;;;;;4984058;28;20395;-34
2024/03/24 08:27:52;;;;;;;0.90;0.90;;;4.40;99.90;;;;;;4983584;28;20192;-32
2024/03/24 08:30:18;;;;;;;1.13;0.95;;;4.50;99.90;;;;;;4983566;28;20030;-34
2024/03/24 08:32:43;;;;;;;0.90;0.90;;;4.60;99.90;;;;;;5003067;28;20037;-33
2024/03/24 08:35:09;;;;;;;1.75;0.82;;;4.50;99.90;;;;;;5001039;28;20021;-35
2024/03/24 08:37:34;;;;;;;0.90;0.90;;;4.40;99.90;;;;;;4995050;28;20105;-41
2024/03/24 08:40:00;;;;;;;0.82;0.82;;;4.10;99.90;;;;;;5002782;28;20041;-40
2024/03/24 08:42:26;;;;;;;0.85;0.85;;;4.00;99.90;;;;;;5004074;28;20025;-38
2024/03/24 08:44:52;;;;;;;0.55;0.55;;;4.00;99.90;;;;;;5002297;28;20072;-41
2024/03/24 08:47:17;;;;;;;1.13;0.90;;;4.30;99.90;;;;;;5004603;28;20026;-39
2024/03/24 08:49:43;;;;;;;0.80;0.80;;;4.30;99.90;;;;;;5004166;28;20069;-38
2024/03/24 08:52:09;;;;;;;3.03;1.00;;;4.40;99.90;;;;;;4999470;28;20060;-39
2024/03/24 08:54:34;;;;;;;0.80;0.80;;;4.40;99.90;;;;;;5004146;28;20034;-39
2024/03/24 08:57:00;;;;;;;0.60;0.60;;;4.30;99.90;;;;;;5000397;28;20041;-40
2024/03/24 08:59:25;;;;;;;0.70;0.70;;;4.40;99.90;;;;;;5001301;28;20878;-40
2024/03/24 09:01:51;;;;;;;0.70;0.70;;;4.60;99.90;;;;;;4990123;28;20072;-39
2024/03/24 09:04:17;;;;;;;0.60;0.60;;;4.90;99.90;;;;;;4984442;28;20055;-40
2024/03/24 09:06:43;;;;;;;0.63;0.63;;;5.00;99.90;;;;;;4984209;28;21415;-41
2024/03/24 09:09:09;;;;;;;0.75;0.75;;;5.00;99.90;;;;;;4982723;28;20046;-38
2024/03/24 09:11:34;;;;;;;1.65;0.70;;;5.20;99.90;;;;;;4982641;28;20133;-40
2024/03/24 09:14:00;;;;;;;0.82;0.82;;;5.20;99.90;;;;;;4982954;28;20030;-39
2024/03/24 09:16:26;;;;;;;0.93;0.90;;;5.30;99.90;;;;;;4982126;28;20041;-37
2024/03/24 09:18:52;;;;;;;0.57;0.57;;;5.20;99.90;;;;;;4984270;28;20034;-40
2024/03/24 09:21:18;;;;;;;0.70;0.70;;;5.30;99.90;;;;;;4986943;28;20154;-39
2024/03/24 09:23:44;;;;;;;0.90;0.90;;;5.30;99.90;;;;;;4987422;28;20145;-41
2024/03/24 09:26:10;;;;;;;0.82;0.68;;;5.40;99.90;;;;;;4987144;28;20156;-41
2024/03/24 09:28:35;;;;;;;1.02;0.70;;;5.30;99.90;;;;;;4986924;28;20035;-34
2024/03/24 09:31:03;;;;;;;0.70;0.70;;;5.40;99.90;;;;;;4986677;28;20117;-34
2024/03/24 09:33:29;;;;;;;1.50;1.08;;;5.50;99.90;;;;;;4987045;28;20461;-35
2024/03/24 09:35:59;;;;;;;1.33;0.93;;;5.40;99.90;;;;;;4986398;28;20030;-32
2024/03/24 09:38:25;;;;;;;3.08;1.20;;;5.50;99.90;;;;;;4985671;28;20034;-40
2024/03/24 09:40:51;;;;;;;0.80;0.80;;;5.60;99.90;;;;;;4984563;28;20554;-40
2024/03/24 09:43:17;;;;;;;0.40;0.40;;;5.80;99.90;;;;;;4985064;28;20329;-39
2024/03/24 09:45:43;;;;;;;0.60;0.60;;;6.00;99.90;;;;;;4983681;28;20065;-37
2024/03/24 09:48:14;;;;;;;1.70;1.00;;;6.10;99.90;;;;;;5017621;28;20037;-32
2024/03/24 09:50:40;;;;;;;0.88;0.80;;;5.80;97.00;;;;;;4983588;28;20071;-33
2024/03/24 09:53:10;;;;;;;0.85;0.85;;;5.80;99.90;;;;;;4983624;28;20102;-35
2024/03/24 09:55:37;;;;;;;1.45;1.00;;;5.90;99.90;;;;;;4987424;28;20045;-33
2024/03/24 09:58:02;;;;;;;0.50;0.50;;;5.70;99.90;;;;;;4986956;28;20037;-32
2024/03/24 10:00:28;;;;;;;0.80;0.80;;;5.70;99.90;;;;;;4983949;28;20031;-32
2024/03/24 10:02:55;;;;;;;1.85;1.00;;;5.80;99.90;;;;;;5008044;28;20527;-32
2024/03/24 10:05:21;;;;;;;0.88;0.88;;;5.80;99.90;;;;;;5009364;28;20034;-32
2024/03/24 10:07:47;;;;;;;2.75;0.90;;;6.00;99.90;;;;;;5010722;28;20104;-34
2024/03/24 10:10:14;;;;;;;0.80;0.70;;;6.30;99.90;;;;;;5006279;28;20041;-33
2024/03/24 10:12:54;;;;;;;0.80;0.80;;;6.30;99.90;;;;;;5004884;28;20026;-33
2024/03/24 10:15:28;;;;;;;1.65;0.70;;;6.30;99.90;;;;;;5000994;28;20108;-36
2024/03/24 10:18:07;;;;;;;2.63;1.13;;;6.20;99.90;;;;;;5006447;28;20032;-33
2024/03/24 10:20:34;;;;;;;1.15;1.00;;;6.20;99.90;;;;;;5003912;28;20053;-34
2024/03/24 10:23:00;;;;;;;1.10;0.70;;;6.20;99.90;;;;;;5002546;28;20099;-34
2024/03/24 10:25:29;;;;;;;1.10;1.02;;;6.20;99.90;;;;;;5003994;28;20037;-32
2024/03/24 10:27:56;;;;;;;0.90;0.90;;;6.20;98.30;;;;;;5008368;28;20038;-33
2024/03/24 10:30:22;;;;;;;1.58;0.90;;;6.30;99.90;;;;;;5007023;28;20038;-32
2024/03/24 10:32:48;;;;;;;2.30;1.02;;;6.30;99.90;;;;;;4986718;28;20112;-32
2024/03/24 10:35:15;;;;;;;1.20;0.80;;;6.20;99.90;;;;;;4986062;28;20040;-32
2024/03/24 10:37:41;;;;;;;1.13;1.10;;;6.20;99.90;;;;;;4985592;28;20499;-32
2024/03/24 10:40:13;;;;;;;1.45;1.33;;;6.20;99.90;;;;;;4985352;28;20559;-34
2024/03/24 10:42:49;;;;;;;1.77;1.13;;;6.10;98.90;;;;;;5014733;28;20373;-33
2024/03/24 10:45:22;;;;;;;1.08;1.08;;;6.10;98.00;;;;;;4988977;28;20102;-33
2024/03/24 10:47:53;;;;;;;1.73;1.02;;;6.10;99.80;;;;;;4983838;28;20053;-41
2024/03/24 10:50:20;;;;;;;1.02;0.80;;;6.10;98.40;;;;;;4985049;28;20479;-41
2024/03/24 10:52:48;;;;;;;1.08;1.00;;;6.10;99.90;;;;;;4986687;28;20488;-39
2024/03/24 10:55:14;;;;;;;1.00;1.00;;;6.10;98.50;;;;;;4983056;28;20429;-41
2024/03/24 10:57:41;;;;;;;1.38;1.25;;;6.10;98.90;;;;;;4983815;28;20035;-41
2024/03/24 11:00:07;;;;;;;0.70;0.70;;;6.10;97.40;;;;;;4985069;28;20034;-40
2024/03/24 11:02:33;;;;;;;0.90;0.90;;;6.10;95.90;;;;;;4986453;28;20134;-40
2024/03/24 11:05:01;;;;;;;1.13;1.10;;;6.10;96.60;;;;;;4986410;28;20015;-43
2024/03/24 11:07:28;;;;;;;1.57;1.00;;;6.10;94.80;;;;;;4983507;28;20038;-32
2024/03/24 11:09:55;;;;;;;2.05;1.27;;;6.10;99.40;;;;;;4986835;28;20292;-35
2024/03/24 11:12:21;;;;;;;2.25;1.30;;;6.10;93.60;;;;;;4984869;28;20651;-32
2024/03/24 11:14:46;;;;;;;1.75;1.20;;;6.10;95.40;;;;;;4986073;28;20504;-32
2024/03/24 11:17:12;;;;;;;1.55;1.23;;;6.20;93.30;;;;;;4982127;28;20038;-36
2024/03/24 11:20:01;;;;;;;1.45;1.35;;;6.30;92.90;;;;;;4986979;28;20127;-35
2024/03/24 11:22:42;;;;;;;1.67;1.58;;;6.40;93.60;;;;;;4988400;28;20688;-32
2024/03/24 11:25:08;;;;;;;1.63;1.30;;;6.30;91.60;;;;;;4985608;28;20031;-32
2024/03/24 11:27:42;;;;;;;1.58;1.30;;;6.30;94.80;;;;;;4985518;28;20038;-35
2024/03/24 11:30:12;;;;;;;1.85;1.25;;;6.30;98.20;;;;;;4986267;28;20607;-36
2024/03/24 11:32:51;;;;;;;1.42;1.30;;;6.30;96.60;;;;;;5006951;28;20084;-34
2024/03/24 11:35:19;;;;;;;1.60;1.50;;;6.40;93.90;;;;;;5004647;28;20080;-36
2024/03/24 11:37:52;;;;;;;1.90;1.50;;;6.50;94.60;;;;;;5007196;28;20041;-33
2024/03/24 11:40:36;;;;;;;1.92;1.65;;;6.60;97.30;;;;;;5004248;28;20048;-34
2024/03/24 11:43:02;;;;;;;1.35;1.27;;;6.80;99.90;;;;;;5002348;28;20034;-32
2024/03/24 11:45:29;;;;;;;2.47;1.67;;;6.80;93.40;;;;;;5003214;28;20030;-35
2024/03/24 11:48:26;;;;;;;7.53;1.38;;;6.80;93.00;;;;;;5008966;28;20056;-32
2024/03/24 11:50:51;;;;;;;2.10;1.70;;;6.80;98.10;;;;;;5003686;28;20113;-32
2024/03/24 11:53:18;;;;;;;1.42;1.33;;;6.80;90.90;;;;;;5005415;28;20125;-33
2024/03/24 11:55:45;;;;;;;1.30;1.20;;;6.80;94.30;;;;;;5005313;28;20420;-34
2024/03/24 11:58:11;;;;;;;1.83;1.73;;;6.70;93.70;;;;;;5004848;28;20061;-38
2024/03/24 12:00:36;;;;;;;2.03;1.73;;;6.70;92.40;;;;;;5000275;28;20121;-36
2024/03/24 12:03:02;;;;;;;2.72;2.13;;;6.70;93.10;;;;;;4974061;28;20050;-40
2024/03/24 12:05:28;;;;;;;3.72;2.55;;;6.60;95.60;;;;;;4981982;28;20439;-41
2024/03/24 12:07:54;;;;;;;3.08;2.47;;;6.50;93.10;;;;;;4979674;28;20027;-42
2024/03/24 12:10:19;;;;;;;3.22;2.60;;;6.50;97.50;;;;;;4981968;28;20038;-38
2024/03/24 12:12:46;;;;;;;3.05;2.60;;;6.60;95.60;;;;;;4983740;28;20407;-37
2024/03/24 12:15:11;;;;;;;3.28;2.28;;;6.60;97.30;;;;;;4983473;28;20061;-39
2024/03/24 12:17:37;;;;;;;4.57;2.10;;;6.70;99.00;;;;;;4979934;28;20435;-38
2024/03/24 12:20:04;;;;;;;2.22;2.03;;;6.80;99.40;;;;;;4981029;28;20031;-33
2024/03/24 12:22:31;;;;;;;2.22;1.98;;;6.80;93.70;;;;;;4977975;28;20033;-33
2024/03/24 12:24:57;;;;;;;1.50;1.30;;;7.20;98.30;;;;;;4980834;28;20424;-39
2024/03/24 12:27:22;;;;;;;3.25;2.08;;;7.20;96.90;;;;;;4979566;28;20042;-39
2024/03/24 12:29:55;;;;;;;2.05;1.85;;;7.30;92.10;;;;;;4982752;28;20041;-34
2024/03/24 12:32:39;;;;;;;1.52;1.42;;;7.50;95.30;;;;;;4981575;28;20042;-34
2024/03/24 12:35:05;;;;;;;1.50;1.40;;;7.40;93.70;;;;;;4981013;28;20037;-35
2024/03/24 12:37:31;;;;;;;3.45;1.98;;;7.40;94.20;;;;;;4981532;28;20050;-32
2024/03/24 12:39:56;;;;;;;2.58;2.10;;;7.50;92.50;;;;;;4987046;28;20030;-37
2024/03/24 12:42:25;;;;;;;3.40;1.60;;;7.40;89.70;;;;;;4982541;28;20081;-34
2024/03/24 12:44:50;;;;;;;2.00;1.90;;;7.50;93.70;;;;;;4982615;28;20412;-34
2024/03/24 12:47:17;;;;;;;2.60;2.28;;;7.70;91.50;;;;;;4982183;28;20030;-33
2024/03/24 12:49:42;;;;;;;2.63;1.70;;;7.30;86.80;;;;;;4975674;28;20650;-34
2024/03/24 12:52:08;;;;;;;3.03;2.00;;;7.30;85.50;;;;;;4981432;28;20077;-34
2024/03/24 12:54:34;;;;;;;1.60;1.50;;;7.10;84.00;;;;;;4983206;28;20026;-36